sensor_id;sensor_type;location;lat;lon;timestamp;temperature;humidity
10644;DHT22;5370;50.132;8.626;2023-08-30T00:01:20;14.40;99.90
10644;DHT22;5370;50.132;8.626;2023-08-30T00:03:45;14.40;99.90
10644;DHT22;5370;50.132;8.626;2023-08-30T00:06:11;14.40;99.90
10644;DHT22;5370;50.132;8.626;2023-08-30T00:08:36;14.40;99.90
10644;DHT22;5370;50.132;8.626;2023-08-30T00:11:02;14.40;99.90
10644;DHT22;5370;50.132;8.626;2023-08-30T00:13:30;14.40;99.90
10644;DHT22;5370;50.132;8.626;2023-08-30T00:15:57;14.40;99.90
10644;DHT22;5370;50.132;8.626;2023-08-30T00:18:23;14.40;99.90
10644;DHT22;5370;50.132;8.626;2023-08-30T00:20:49;14.40;99.90
10644;DHT22;5370;50.132;8.626;2023-08-30T00:23:14;14.40;99.90
10644;DHT22;5370;50.132;8.626;2023-08-30T00:25:41;14.40;99.90
10644;DHT22;5370;50.132;8.626;2023-08-30T00:28:07;14.50;99.90
10644;DHT22;5370;50.132;8.626;2023-08-30T00:30:32;14.40;99.90
10644;DHT22;5370;50.132;8.626;2023-08-30T00:32:58;14.40;99.90
10644;DHT22;5370;50.132;8.626;2023-08-30T00:35:23;14.40;99.90
10644;DHT22;5370;50.132;8.626;2023-08-30T00:37:49;14.30;99.90
10644;DHT22;5370;50.132;8.626;2023-08-30T00:40:14;14.30;99.90
10644;DHT22;5370;50.132;8.626;2023-08-30T00:42:40;14.20;99.90
10644;DHT22;5370;50.132;8.626;2023-08-30T00:45:06;14.20;99.90
10644;DHT22;5370;50.132;8.626;2023-08-30T00:47:32;14.10;99.90
10644;DHT22;5370;50.132;8.626;2023-08-30T00:49:58;14.10;99.90
10644;DHT22;5370;50.132;8.626;2023-08-30T00:52:23;14.10;99.90
10644;DHT22;5370;50.132;8.626;2023-08-30T00:54:49;14.10;99.90
10644;DHT22;5370;50.132;8.626;2023-08-30T00:57:16;14.10;99.90
10644;DHT22;5370;50.132;8.626;2023-08-30T00:59:41;14.10;99.90
10644;DHT22;5370;50.132;8.626;2023-08-30T01:02:07;14.10;99.90
10644;DHT22;5370;50.132;8.626;2023-08-30T01:04:32;14.20;99.90
10644;DHT22;5370;50.132;8.626;2023-08-30T01:06:58;14.10;99.90
10644;DHT22;5370;50.132;8.626;2023-08-30T01:09:24;14.20;99.90
10644;DHT22;5370;50.132;8.626;2023-08-30T01:14:31;14.20;99.90
10644;DHT22;5370;50.132;8.626;2023-08-30T01:16:58;14.20;99.90
10644;DHT22;5370;50.132;8.626;2023-08-30T01:22:08;14.20;99.90
10644;DHT22;5370;50.132;8.626;2023-08-30T01:27:21;14.20;99.90
10644;DHT22;5370;50.132;8.626;2023-08-30T01:29:49;14.20;99.90
10644;DHT22;5370;50.132;8.626;2023-08-30T01:32:14;14.20;99.90
10644;DHT22;5370;50.132;8.626;2023-08-30T01:34:41;14.20;99.90
10644;DHT22;5370;50.132;8.626;2023-08-30T01:37:08;14.20;99.90
10644;DHT22;5370;50.132;8.626;2023-08-30T01:39:36;14.10;99.90
10644;DHT22;5370;50.132;8.626;2023-08-30T01:42:03;14.10;99.90
10644;DHT22;5370;50.132;8.626;2023-08-30T01:44:30;14.10;99.90
10644;DHT22;5370;50.132;8.626;2023-08-30T01:46:57;14.10;99.90
10644;DHT22;5370;50.132;8.626;2023-08-30T01:49:26;14.10;99.90
10644;DHT22;5370;50.132;8.626;2023-08-30T01:51:53;14.10;99.90
10644;DHT22;5370;50.132;8.626;2023-08-30T01:54:20;14.10;99.90
10644;DHT22;5370;50.132;8.626;2023-08-30T01:56:46;14.10;99.90
10644;DHT22;5370;50.132;8.626;2023-08-30T01:59:12;14.10;99.90
10644;DHT22;5370;50.132;8.626;2023-08-30T02:01:37;14.10;99.90
10644;DHT22;5370;50.132;8.626;2023-08-30T02:04:03;14.10;99.90
10644;DHT22;5370;50.132;8.626;2023-08-30T02:06:42;14.10;99.90
10644;DHT22;5370;50.132;8.626;2023-08-30T02:09:32;14.10;99.90
10644;DHT22;5370;50.132;8.626;2023-08-30T02:12:04;14.10;99.90
10644;DHT22;5370;50.132;8.626;2023-08-30T02:14:32;14.10;99.90
10644;DHT22;5370;50.132;8.626;2023-08-30T02:16:58;14.10;99.90
10644;DHT22;5370;50.132;8.626;2023-08-30T02:19:24;14.10;99.90
10644;DHT22;5370;50.132;8.626;2023-08-30T02:21:49;14.10;99.90
10644;DHT22;5370;50.132;8.626;2023-08-30T02:24:15;14.10;99.90
10644;DHT22;5370;50.132;8.626;2023-08-30T02:26:40;14.10;99.90
10644;DHT22;5370;50.132;8.626;2023-08-30T02:29:06;14.00;99.90
10644;DHT22;5370;50.132;8.626;2023-08-30T02:31:33;14.10;99.90
10644;DHT22;5370;50.132;8.626;2023-08-30T02:33:59;14.10;99.90
10644;DHT22;5370;50.132;8.626;2023-08-30T02:36:24;14.10;99.90
10644;DHT22;5370;50.132;8.626;2023-08-30T02:38:50;14.10;99.90
10644;DHT22;5370;50.132;8.626;2023-08-30T02:41:15;14.10;99.90
10644;DHT22;5370;50.132;8.626;2023-08-30T02:43:41;14.10;99.90
10644;DHT22;5370;50.132;8.626;2023-08-30T02:46:06;14.10;99.90
10644;DHT22;5370;50.132;8.626;2023-08-30T02:48:32;14.10;99.90
10644;DHT22;5370;50.132;8.626;2023-08-30T02:50:58;14.00;99.90
10644;DHT22;5370;50.132;8.626;2023-08-30T02:53:24;14.10;99.90
10644;DHT22;5370;50.132;8.626;2023-08-30T02:55:50;14.10;99.90
10644;DHT22;5370;50.132;8.626;2023-08-30T02:58:15;14.10;99.90
10644;DHT22;5370;50.132;8.626;2023-08-30T03:00:41;14.10;99.90
10644;DHT22;5370;50.132;8.626;2023-08-30T03:03:06;14.20;99.90
10644;DHT22;5370;50.132;8.626;2023-08-30T03:05:32;14.20;99.90
10644;DHT22;5370;50.132;8.626;2023-08-30T03:07:58;14.20;99.90
10644;DHT22;5370;50.132;8.626;2023-08-30T03:10:23;14.20;99.90
10644;DHT22;5370;50.132;8.626;2023-08-30T03:12:49;14.20;99.90
10644;DHT22;5370;50.132;8.626;2023-08-30T03:15:14;14.20;99.90
10644;DHT22;5370;50.132;8.626;2023-08-30T03:17:40;14.10;99.90
10644;DHT22;5370;50.132;8.626;2023-08-30T03:20:06;14.10;99.90
10644;DHT22;5370;50.132;8.626;2023-08-30T03:22:32;14.10;99.90
10644;DHT22;5370;50.132;8.626;2023-08-30T03:24:57;14.20;99.90
10644;DHT22;5370;50.132;8.626;2023-08-30T03:27:23;14.20;99.90
10644;DHT22;5370;50.132;8.626;2023-08-30T03:29:49;14.20;99.90
10644;DHT22;5370;50.132;8.626;2023-08-30T03:32:16;14.20;99.90
10644;DHT22;5370;50.132;8.626;2023-08-30T03:34:45;14.20;99.90
10644;DHT22;5370;50.132;8.626;2023-08-30T03:37:12;14.20;99.90
10644;DHT22;5370;50.132;8.626;2023-08-30T03:39:38;14.20;99.90
10644;DHT22;5370;50.132;8.626;2023-08-30T03:42:03;14.20;99.90
10644;DHT22;5370;50.132;8.626;2023-08-30T03:44:29;14.20;99.90
10644;DHT22;5370;50.132;8.626;2023-08-30T03:46:54;14.20;99.90
10644;DHT22;5370;50.132;8.626;2023-08-30T03:49:22;14.20;99.90
10644;DHT22;5370;50.132;8.626;2023-08-30T03:51:48;14.20;99.90
10644;DHT22;5370;50.132;8.626;2023-08-30T03:54:13;14.20;99.90
10644;DHT22;5370;50.132;8.626;2023-08-30T03:56:42;14.20;99.90
10644;DHT22;5370;50.132;8.626;2023-08-30T03:59:07;14.10;99.90
10644;DHT22;5370;50.132;8.626;2023-08-30T04:01:33;14.20;99.90
10644;DHT22;5370;50.132;8.626;2023-08-30T04:03:58;14.10;99.90
10644;DHT22;5370;50.132;8.626;2023-08-30T04:06:24;14.10;99.90
10644;DHT22;5370;50.132;8.626;2023-08-30T04:08:49;14.10;99.90
10644;DHT22;5370;50.132;8.626;2023-08-30T04:11:15;14.10;99.90
10644;DHT22;5370;50.132;8.626;2023-08-30T04:13:40;14.10;99.90
10644;DHT22;5370;50.132;8.626;2023-08-30T04:16:06;14.10;99.90
10644;DHT22;5370;50.132;8.626;2023-08-30T04:18:31;14.10;99.90
10644;DHT22;5370;50.132;8.626;2023-08-30T04:20:58;14.10;99.90
10644;DHT22;5370;50.132;8.626;2023-08-30T04:23:23;14.20;99.90
10644;DHT22;5370;50.132;8.626;2023-08-30T04:25:49;14.20;99.90
10644;DHT22;5370;50.132;8.626;2023-08-30T04:28:15;14.20;99.90
10644;DHT22;5370;50.132;8.626;2023-08-30T04:30:40;14.20;99.90
10644;DHT22;5370;50.132;8.626;2023-08-30T04:33:06;14.30;99.90
10644;DHT22;5370;50.132;8.626;2023-08-30T04:35:31;14.20;99.90
10644;DHT22;5370;50.132;8.626;2023-08-30T04:38:01;14.30;99.90
10644;DHT22;5370;50.132;8.626;2023-08-30T04:40:28;14.30;99.90
10644;DHT22;5370;50.132;8.626;2023-08-30T04:42:55;14.20;99.90
10644;DHT22;5370;50.132;8.626;2023-08-30T04:45:21;14.20;99.90
10644;DHT22;5370;50.132;8.626;2023-08-30T04:47:47;14.10;99.90
10644;DHT22;5370;50.132;8.626;2023-08-30T04:50:13;14.10;99.90
10644;DHT22;5370;50.132;8.626;2023-08-30T04:52:38;14.00;99.90
10644;DHT22;5370;50.132;8.626;2023-08-30T04:55:05;14.00;99.90
10644;DHT22;5370;50.132;8.626;2023-08-30T04:57:30;14.00;99.90
10644;DHT22;5370;50.132;8.626;2023-08-30T04:59:56;14.00;99.90
10644;DHT22;5370;50.132;8.626;2023-08-30T05:02:22;14.00;99.90
10644;DHT22;5370;50.132;8.626;2023-08-30T05:04:47;14.00;99.90
10644;DHT22;5370;50.132;8.626;2023-08-30T05:07:13;14.10;99.90
10644;DHT22;5370;50.132;8.626;2023-08-30T05:09:39;14.10;99.90
10644;DHT22;5370;50.132;8.626;2023-08-30T05:12:06;14.20;99.90
10644;DHT22;5370;50.132;8.626;2023-08-30T05:14:32;14.20;99.90
10644;DHT22;5370;50.132;8.626;2023-08-30T05:16:57;14.30;99.90
10644;DHT22;5370;50.132;8.626;2023-08-30T05:19:23;14.40;99.90
10644;DHT22;5370;50.132;8.626;2023-08-30T05:21:48;14.50;99.90
10644;DHT22;5370;50.132;8.626;2023-08-30T05:24:17;14.60;99.90
10644;DHT22;5370;50.132;8.626;2023-08-30T05:26:42;14.60;99.90
10644;DHT22;5370;50.132;8.626;2023-08-30T05:29:08;14.70;99.90
10644;DHT22;5370;50.132;8.626;2023-08-30T05:31:33;14.90;99.90
10644;DHT22;5370;50.132;8.626;2023-08-30T05:33:59;14.90;99.90
10644;DHT22;5370;50.132;8.626;2023-08-30T05:36:24;15.00;99.90
10644;DHT22;5370;50.132;8.626;2023-08-30T05:38:50;15.10;99.90
10644;DHT22;5370;50.132;8.626;2023-08-30T05:41:15;15.10;99.90
10644;DHT22;5370;50.132;8.626;2023-08-30T05:43:41;15.20;99.90
10644;DHT22;5370;50.132;8.626;2023-08-30T05:46:06;15.30;99.90
10644;DHT22;5370;50.132;8.626;2023-08-30T05:48:37;15.40;99.90
10644;DHT22;5370;50.132;8.626;2023-08-30T05:51:03;15.50;99.90
10644;DHT22;5370;50.132;8.626;2023-08-30T05:53:28;15.40;99.90
10644;DHT22;5370;50.132;8.626;2023-08-30T05:55:54;15.50;99.90
10644;DHT22;5370;50.132;8.626;2023-08-30T05:58:19;15.50;99.90
10644;DHT22;5370;50.132;8.626;2023-08-30T06:00:45;15.60;99.90
10644;DHT22;5370;50.132;8.626;2023-08-30T06:03:10;15.60;99.90
10644;DHT22;5370;50.132;8.626;2023-08-30T06:05:36;15.70;99.90
10644;DHT22;5370;50.132;8.626;2023-08-30T06:08:02;15.80;99.90
10644;DHT22;5370;50.132;8.626;2023-08-30T06:10:28;15.90;99.90
10644;DHT22;5370;50.132;8.626;2023-08-30T06:12:53;16.10;99.90
10644;DHT22;5370;50.132;8.626;2023-08-30T06:15:19;16.20;99.90
10644;DHT22;5370;50.132;8.626;2023-08-30T06:17:44;16.40;99.90
10644;DHT22;5370;50.132;8.626;2023-08-30T06:20:12;16.60;99.90
10644;DHT22;5370;50.132;8.626;2023-08-30T06:22:37;16.70;99.90
10644;DHT22;5370;50.132;8.626;2023-08-30T06:25:03;16.80;99.90
10644;DHT22;5370;50.132;8.626;2023-08-30T06:27:30;16.90;99.70
10644;DHT22;5370;50.132;8.626;2023-08-30T06:29:55;17.10;99.40
10644;DHT22;5370;50.132;8.626;2023-08-30T06:32:20;17.20;99.10
10644;DHT22;5370;50.132;8.626;2023-08-30T06:34:46;17.30;98.70
10644;DHT22;5370;50.132;8.626;2023-08-30T06:37:12;17.50;98.30
10644;DHT22;5370;50.132;8.626;2023-08-30T06:39:37;17.60;98.00
10644;DHT22;5370;50.132;8.626;2023-08-30T06:42:03;17.70;97.60
10644;DHT22;5370;50.132;8.626;2023-08-30T06:44:29;17.80;97.40
10644;DHT22;5370;50.132;8.626;2023-08-30T06:46:56;18.00;97.10
10644;DHT22;5370;50.132;8.626;2023-08-30T06:49:22;18.10;96.80
10644;DHT22;5370;50.132;8.626;2023-08-30T06:51:48;18.30;96.40
10644;DHT22;5370;50.132;8.626;2023-08-30T06:54:13;18.40;96.00
10644;DHT22;5370;50.132;8.626;2023-08-30T06:56:39;18.50;95.80
10644;DHT22;5370;50.132;8.626;2023-08-30T06:59:05;18.70;95.40
10644;DHT22;5370;50.132;8.626;2023-08-30T07:01:30;18.80;94.80
10644;DHT22;5370;50.132;8.626;2023-08-30T07:03:56;18.90;94.50
10644;DHT22;5370;50.132;8.626;2023-08-30T07:06:21;19.10;94.20
10644;DHT22;5370;50.132;8.626;2023-08-30T07:08:47;19.20;93.80
10644;DHT22;5370;50.132;8.626;2023-08-30T07:11:12;19.30;93.40
10644;DHT22;5370;50.132;8.626;2023-08-30T07:13:38;19.30;93.00
10644;DHT22;5370;50.132;8.626;2023-08-30T07:16:03;19.40;92.60
10644;DHT22;5370;50.132;8.626;2023-08-30T07:18:29;19.30;92.20
10644;DHT22;5370;50.132;8.626;2023-08-30T07:20:54;19.30;92.10
10644;DHT22;5370;50.132;8.626;2023-08-30T07:23:20;19.30;92.10
10644;DHT22;5370;50.132;8.626;2023-08-30T07:25:45;19.30;92.00
10644;DHT22;5370;50.132;8.626;2023-08-30T07:28:11;19.30;91.80
10644;DHT22;5370;50.132;8.626;2023-08-30T07:30:36;19.20;91.40
10644;DHT22;5370;50.132;8.626;2023-08-30T07:33:03;19.20;91.20
10644;DHT22;5370;50.132;8.626;2023-08-30T07:35:30;19.10;91.20
10644;DHT22;5370;50.132;8.626;2023-08-30T07:37:55;19.00;91.30
10644;DHT22;5370;50.132;8.626;2023-08-30T07:40:21;19.10;91.40
10644;DHT22;5370;50.132;8.626;2023-08-30T07:42:51;19.20;91.30
10644;DHT22;5370;50.132;8.626;2023-08-30T07:45:17;19.30;91.30
10644;DHT22;5370;50.132;8.626;2023-08-30T07:47:42;19.50;91.10
10644;DHT22;5370;50.132;8.626;2023-08-30T07:50:08;19.70;90.80
10644;DHT22;5370;50.132;8.626;2023-08-30T07:52:34;19.70;90.50
10644;DHT22;5370;50.132;8.626;2023-08-30T07:54:59;19.90;90.10
10644;DHT22;5370;50.132;8.626;2023-08-30T07:57:25;20.00;89.90
10644;DHT22;5370;50.132;8.626;2023-08-30T07:59:50;20.00;88.80
10644;DHT22;5370;50.132;8.626;2023-08-30T08:02:16;20.00;87.90
10644;DHT22;5370;50.132;8.626;2023-08-30T08:04:41;20.20;87.50
10644;DHT22;5370;50.132;8.626;2023-08-30T08:07:07;20.30;87.00
10644;DHT22;5370;50.132;8.626;2023-08-30T08:09:32;20.40;85.80
10644;DHT22;5370;50.132;8.626;2023-08-30T08:11:59;20.60;85.40
10644;DHT22;5370;50.132;8.626;2023-08-30T08:14:24;20.80;84.80
10644;DHT22;5370;50.132;8.626;2023-08-30T08:16:50;21.20;83.70
10644;DHT22;5370;50.132;8.626;2023-08-30T08:19:16;21.50;81.70
10644;DHT22;5370;50.132;8.626;2023-08-30T08:21:41;21.70;80.30
10644;DHT22;5370;50.132;8.626;2023-08-30T08:24:07;22.10;79.30
10644;DHT22;5370;50.132;8.626;2023-08-30T08:26:32;22.60;77.20
10644;DHT22;5370;50.132;8.626;2023-08-30T08:28:58;23.10;74.60
10644;DHT22;5370;50.132;8.626;2023-08-30T08:31:23;23.50;73.00
10644;DHT22;5370;50.132;8.626;2023-08-30T08:34:06;24.00;71.10
10644;DHT22;5370;50.132;8.626;2023-08-30T08:36:32;24.60;68.40
10644;DHT22;5370;50.132;8.626;2023-08-30T08:38:57;25.10;66.30
10644;DHT22;5370;50.132;8.626;2023-08-30T08:41:26;25.40;64.10
10644;DHT22;5370;50.132;8.626;2023-08-30T08:43:54;25.50;62.20
10644;DHT22;5370;50.132;8.626;2023-08-30T08:46:20;25.50;61.00
10644;DHT22;5370;50.132;8.626;2023-08-30T08:48:47;25.40;60.30
10644;DHT22;5370;50.132;8.626;2023-08-30T08:51:14;25.20;60.10
10644;DHT22;5370;50.132;8.626;2023-08-30T08:53:40;25.00;59.80
10644;DHT22;5370;50.132;8.626;2023-08-30T08:56:06;24.80;59.70
10644;DHT22;5370;50.132;8.626;2023-08-30T08:58:35;24.60;59.80
10644;DHT22;5370;50.132;8.626;2023-08-30T09:01:03;24.50;59.80
10644;DHT22;5370;50.132;8.626;2023-08-30T09:03:29;24.30;59.80
10644;DHT22;5370;50.132;8.626;2023-08-30T09:05:55;24.20;59.80
10644;DHT22;5370;50.132;8.626;2023-08-30T09:08:21;24.10;59.80
10644;DHT22;5370;50.132;8.626;2023-08-30T09:10:47;24.00;59.70
10644;DHT22;5370;50.132;8.626;2023-08-30T09:13:15;23.90;59.60
10644;DHT22;5370;50.132;8.626;2023-08-30T09:15:41;23.80;59.90
10644;DHT22;5370;50.132;8.626;2023-08-30T09:18:16;23.80;60.20
10644;DHT22;5370;50.132;8.626;2023-08-30T09:20:42;23.80;60.30
10644;DHT22;5370;50.132;8.626;2023-08-30T09:23:21;23.80;60.40
10644;DHT22;5370;50.132;8.626;2023-08-30T09:25:47;23.90;60.40
10644;DHT22;5370;50.132;8.626;2023-08-30T09:28:12;23.80;60.30
10644;DHT22;5370;50.132;8.626;2023-08-30T09:30:39;23.90;60.00
10644;DHT22;5370;50.132;8.626;2023-08-30T09:33:05;23.90;59.70
10644;DHT22;5370;50.132;8.626;2023-08-30T09:35:31;23.80;59.60
10644;DHT22;5370;50.132;8.626;2023-08-30T09:37:57;23.70;59.40
10644;DHT22;5370;50.132;8.626;2023-08-30T09:40:22;23.60;59.40
10644;DHT22;5370;50.132;8.626;2023-08-30T09:42:48;23.60;59.50
10644;DHT22;5370;50.132;8.626;2023-08-30T09:45:22;23.60;59.40
10644;DHT22;5370;50.132;8.626;2023-08-30T09:47:50;23.50;59.40
10644;DHT22;5370;50.132;8.626;2023-08-30T09:50:20;23.40;59.60
10644;DHT22;5370;50.132;8.626;2023-08-30T09:52:49;23.40;59.50
10644;DHT22;5370;50.132;8.626;2023-08-30T09:55:15;23.30;59.30
10644;DHT22;5370;50.132;8.626;2023-08-30T09:57:42;23.20;59.40
10644;DHT22;5370;50.132;8.626;2023-08-30T10:00:09;23.20;59.40
10644;DHT22;5370;50.132;8.626;2023-08-30T10:02:38;23.10;59.30
10644;DHT22;5370;50.132;8.626;2023-08-30T10:05:08;22.90;59.50
10644;DHT22;5370;50.132;8.626;2023-08-30T10:07:35;22.90;60.20
10644;DHT22;5370;50.132;8.626;2023-08-30T10:10:03;23.00;60.60
10644;DHT22;5370;50.132;8.626;2023-08-30T10:12:31;22.90;60.40
10644;DHT22;5370;50.132;8.626;2023-08-30T10:14:57;23.00;60.20
10644;DHT22;5370;50.132;8.626;2023-08-30T10:17:30;23.10;59.90
10644;DHT22;5370;50.132;8.626;2023-08-30T10:19:56;23.20;59.70
10644;DHT22;5370;50.132;8.626;2023-08-30T10:22:23;23.10;59.20
10644;DHT22;5370;50.132;8.626;2023-08-30T10:25:04;23.10;59.10
10644;DHT22;5370;50.132;8.626;2023-08-30T10:27:32;23.10;59.20
10644;DHT22;5370;50.132;8.626;2023-08-30T10:30:01;23.10;59.30
10644;DHT22;5370;50.132;8.626;2023-08-30T10:32:29;23.20;59.60
10644;DHT22;5370;50.132;8.626;2023-08-30T10:34:54;23.30;59.40
10644;DHT22;5370;50.132;8.626;2023-08-30T10:37:24;23.40;59.20
10644;DHT22;5370;50.132;8.626;2023-08-30T10:39:51;23.50;58.50
10644;DHT22;5370;50.132;8.626;2023-08-30T10:42:22;23.70;58.20
10644;DHT22;5370;50.132;8.626;2023-08-30T10:47:23;24.00;57.50
10644;DHT22;5370;50.132;8.626;2023-08-30T10:49:53;24.10;56.50
10644;DHT22;5370;50.132;8.626;2023-08-30T10:52:20;24.20;56.40
10644;DHT22;5370;50.132;8.626;2023-08-30T10:54:46;24.30;55.90
10644;DHT22;5370;50.132;8.626;2023-08-30T10:57:18;24.40;55.60
10644;DHT22;5370;50.132;8.626;2023-08-30T11:00:03;24.50;55.10
10644;DHT22;5370;50.132;8.626;2023-08-30T11:02:30;24.60;54.70
10644;DHT22;5370;50.132;8.626;2023-08-30T11:04:57;24.60;53.90
10644;DHT22;5370;50.132;8.626;2023-08-30T11:07:27;24.70;53.60
10644;DHT22;5370;50.132;8.626;2023-08-30T11:09:52;24.70;53.00
10644;DHT22;5370;50.132;8.626;2023-08-30T11:12:19;24.70;52.60
10644;DHT22;5370;50.132;8.626;2023-08-30T11:14:48;24.90;52.70
10644;DHT22;5370;50.132;8.626;2023-08-30T11:17:16;25.00;52.80
10644;DHT22;5370;50.132;8.626;2023-08-30T11:19:42;25.10;52.20
10644;DHT22;5370;50.132;8.626;2023-08-30T11:22:08;25.10;51.60
10644;DHT22;5370;50.132;8.626;2023-08-30T11:24:34;25.00;51.20
10644;DHT22;5370;50.132;8.626;2023-08-30T11:27:00;24.90;51.30
10644;DHT22;5370;50.132;8.626;2023-08-30T11:29:27;24.80;51.60
10644;DHT22;5370;50.132;8.626;2023-08-30T11:31:52;24.80;51.70
10644;DHT22;5370;50.132;8.626;2023-08-30T11:34:21;24.90;51.80
10644;DHT22;5370;50.132;8.626;2023-08-30T11:36:50;24.90;51.60
10644;DHT22;5370;50.132;8.626;2023-08-30T11:39:16;24.90;51.40
10644;DHT22;5370;50.132;8.626;2023-08-30T11:41:43;24.80;51.20
10644;DHT22;5370;50.132;8.626;2023-08-30T11:44:10;24.70;51.20
10644;DHT22;5370;50.132;8.626;2023-08-30T11:46:35;24.70;51.60
10644;DHT22;5370;50.132;8.626;2023-08-30T11:49:01;24.80;52.00
10644;DHT22;5370;50.132;8.626;2023-08-30T11:51:28;24.90;51.80
10644;DHT22;5370;50.132;8.626;2023-08-30T11:53:55;24.90;51.40
10644;DHT22;5370;50.132;8.626;2023-08-30T11:56:21;24.90;51.50
10644;DHT22;5370;50.132;8.626;2023-08-30T11:58:47;25.00;51.10
10644;DHT22;5370;50.132;8.626;2023-08-30T12:01:13;25.00;50.90
10644;DHT22;5370;50.132;8.626;2023-08-30T12:03:38;25.10;50.80
10644;DHT22;5370;50.132;8.626;2023-08-30T12:06:10;25.20;50.80
10644;DHT22;5370;50.132;8.626;2023-08-30T12:08:35;25.20;50.40
10644;DHT22;5370;50.132;8.626;2023-08-30T12:11:01;25.30;50.30
10644;DHT22;5370;50.132;8.626;2023-08-30T12:13:31;25.30;49.90
10644;DHT22;5370;50.132;8.626;2023-08-30T12:15:58;25.30;49.80
10644;DHT22;5370;50.132;8.626;2023-08-30T12:18:33;25.30;49.80
10644;DHT22;5370;50.132;8.626;2023-08-30T12:21:00;25.10;49.80
10644;DHT22;5370;50.132;8.626;2023-08-30T12:23:31;25.10;50.00
10644;DHT22;5370;50.132;8.626;2023-08-30T12:26:07;25.10;49.80
10644;DHT22;5370;50.132;8.626;2023-08-30T12:28:34;25.20;49.00
10644;DHT22;5370;50.132;8.626;2023-08-30T12:31:00;25.20;48.70
10644;DHT22;5370;50.132;8.626;2023-08-30T12:33:26;25.30;48.60
10644;DHT22;5370;50.132;8.626;2023-08-30T12:35:53;25.50;48.00
10644;DHT22;5370;50.132;8.626;2023-08-30T12:38:19;25.70;46.90
10644;DHT22;5370;50.132;8.626;2023-08-30T12:40:45;25.90;45.00
10644;DHT22;5370;50.132;8.626;2023-08-30T12:43:12;26.00;43.60
10644;DHT22;5370;50.132;8.626;2023-08-30T12:45:39;26.00;43.20
10644;DHT22;5370;50.132;8.626;2023-08-30T12:48:05;26.10;42.80
10644;DHT22;5370;50.132;8.626;2023-08-30T12:50:31;26.20;42.40
10644;DHT22;5370;50.132;8.626;2023-08-30T12:52:56;26.30;42.00
10644;DHT22;5370;50.132;8.626;2023-08-30T12:55:22;26.40;41.60
10644;DHT22;5370;50.132;8.626;2023-08-30T12:57:47;26.50;41.10
10644;DHT22;5370;50.132;8.626;2023-08-30T13:00:13;26.40;40.30
10644;DHT22;5370;50.132;8.626;2023-08-30T13:02:39;26.40;40.60
10644;DHT22;5370;50.132;8.626;2023-08-30T13:05:05;26.40;41.10
10644;DHT22;5370;50.132;8.626;2023-08-30T13:07:31;26.40;41.20
10644;DHT22;5370;50.132;8.626;2023-08-30T13:09:57;26.50;41.30
10644;DHT22;5370;50.132;8.626;2023-08-30T13:12:22;26.60;41.00
10644;DHT22;5370;50.132;8.626;2023-08-30T13:14:48;26.50;40.60
10644;DHT22;5370;50.132;8.626;2023-08-30T13:17:13;26.50;40.80
10644;DHT22;5370;50.132;8.626;2023-08-30T13:19:39;26.40;41.00
10644;DHT22;5370;50.132;8.626;2023-08-30T13:22:04;26.40;41.60
10644;DHT22;5370;50.132;8.626;2023-08-30T13:24:30;26.30;41.40
10644;DHT22;5370;50.132;8.626;2023-08-30T13:26:58;26.30;41.50
10644;DHT22;5370;50.132;8.626;2023-08-30T13:29:23;26.10;41.50
10644;DHT22;5370;50.132;8.626;2023-08-30T13:31:49;25.90;42.00
10644;DHT22;5370;50.132;8.626;2023-08-30T13:34:14;25.80;42.00
10644;DHT22;5370;50.132;8.626;2023-08-30T13:36:40;25.70;42.00
10644;DHT22;5370;50.132;8.626;2023-08-30T13:39:05;25.80;42.40
10644;DHT22;5370;50.132;8.626;2023-08-30T13:41:31;25.80;42.40
10644;DHT22;5370;50.132;8.626;2023-08-30T13:43:56;25.70;42.20
10644;DHT22;5370;50.132;8.626;2023-08-30T13:46:22;25.60;42.20
10644;DHT22;5370;50.132;8.626;2023-08-30T13:48:47;25.50;42.60
10644;DHT22;5370;50.132;8.626;2023-08-30T13:51:14;25.40;42.50
10644;DHT22;5370;50.132;8.626;2023-08-30T13:53:39;25.30;42.40
10644;DHT22;5370;50.132;8.626;2023-08-30T13:56:05;25.20;42.40
10644;DHT22;5370;50.132;8.626;2023-08-30T13:58:30;25.00;42.30
10644;DHT22;5370;50.132;8.626;2023-08-30T14:00:56;24.90;42.50
10644;DHT22;5370;50.132;8.626;2023-08-30T14:03:21;24.90;42.80
10644;DHT22;5370;50.132;8.626;2023-08-30T14:05:47;24.90;42.70
10644;DHT22;5370;50.132;8.626;2023-08-30T14:08:12;24.90;42.60
10644;DHT22;5370;50.132;8.626;2023-08-30T14:10:38;24.90;42.80
10644;DHT22;5370;50.132;8.626;2023-08-30T14:13:04;25.00;42.70
10644;DHT22;5370;50.132;8.626;2023-08-30T14:15:30;25.00;42.50
10644;DHT22;5370;50.132;8.626;2023-08-30T14:17:56;25.00;42.50
10644;DHT22;5370;50.132;8.626;2023-08-30T14:20:22;25.00;42.80
10644;DHT22;5370;50.132;8.626;2023-08-30T14:22:47;25.10;42.90
10644;DHT22;5370;50.132;8.626;2023-08-30T14:25:13;25.10;43.10
10644;DHT22;5370;50.132;8.626;2023-08-30T14:27:39;25.10;43.30
10644;DHT22;5370;50.132;8.626;2023-08-30T14:30:06;25.20;43.30
10644;DHT22;5370;50.132;8.626;2023-08-30T14:32:31;25.20;43.40
10644;DHT22;5370;50.132;8.626;2023-08-30T14:34:57;25.30;43.30
10644;DHT22;5370;50.132;8.626;2023-08-30T14:37:22;25.30;43.10
10644;DHT22;5370;50.132;8.626;2023-08-30T14:39:48;25.30;43.00
10644;DHT22;5370;50.132;8.626;2023-08-30T14:42:13;25.30;43.20
10644;DHT22;5370;50.132;8.626;2023-08-30T14:44:39;25.30;43.10
10644;DHT22;5370;50.132;8.626;2023-08-30T14:47:05;25.30;42.90
10644;DHT22;5370;50.132;8.626;2023-08-30T14:49:31;25.20;43.00
10644;DHT22;5370;50.132;8.626;2023-08-30T14:51:57;25.20;43.20
10644;DHT22;5370;50.132;8.626;2023-08-30T14:54:23;25.30;43.50
10644;DHT22;5370;50.132;8.626;2023-08-30T14:56:48;25.20;43.70
10644;DHT22;5370;50.132;8.626;2023-08-30T14:59:14;25.20;43.90
10644;DHT22;5370;50.132;8.626;2023-08-30T15:01:39;25.10;43.80
10644;DHT22;5370;50.132;8.626;2023-08-30T15:04:05;25.00;43.80
10644;DHT22;5370;50.132;8.626;2023-08-30T15:06:30;24.90;43.80
10644;DHT22;5370;50.132;8.626;2023-08-30T15:08:56;24.70;43.80
10644;DHT22;5370;50.132;8.626;2023-08-30T15:11:22;24.70;44.00
10644;DHT22;5370;50.132;8.626;2023-08-30T15:13:48;24.60;44.00
10644;DHT22;5370;50.132;8.626;2023-08-30T15:16:14;24.40;44.00
10644;DHT22;5370;50.132;8.626;2023-08-30T15:18:39;24.30;44.30
10644;DHT22;5370;50.132;8.626;2023-08-30T15:21:05;24.30;44.60
10644;DHT22;5370;50.132;8.626;2023-08-30T15:23:30;24.20;44.80
10644;DHT22;5370;50.132;8.626;2023-08-30T15:25:56;24.20;45.10
10644;DHT22;5370;50.132;8.626;2023-08-30T15:28:22;24.20;45.10
10644;DHT22;5370;50.132;8.626;2023-08-30T15:30:47;24.10;45.20
10644;DHT22;5370;50.132;8.626;2023-08-30T15:33:17;24.00;45.30
10644;DHT22;5370;50.132;8.626;2023-08-30T15:35:43;23.90;46.10
10644;DHT22;5370;50.132;8.626;2023-08-30T15:38:08;23.70;45.80
10644;DHT22;5370;50.132;8.626;2023-08-30T15:40:35;23.50;46.00
10644;DHT22;5370;50.132;8.626;2023-08-30T15:43:01;23.40;46.80
10644;DHT22;5370;50.132;8.626;2023-08-30T15:45:28;23.20;46.60
10644;DHT22;5370;50.132;8.626;2023-08-30T15:47:53;23.10;47.00
10644;DHT22;5370;50.132;8.626;2023-08-30T15:50:19;23.10;47.50